sensor_id;sensor_type;location;lat;lon;timestamp;temperature;humidity
17174;DHT22;8702;48.130;-1.696;2023-06-14T00:01:02;20.40;99.90
17174;DHT22;8702;48.130;-1.696;2023-06-14T00:03:31;20.40;99.90
17174;DHT22;8702;48.130;-1.696;2023-06-14T00:06:00;20.20;99.90
17174;DHT22;8702;48.130;-1.696;2023-06-14T00:08:26;20.30;99.90
17174;DHT22;8702;48.130;-1.696;2023-06-14T00:10:53;20.30;99.90
17174;DHT22;8702;48.130;-1.696;2023-06-14T00:13:20;20.20;99.90
17174;DHT22;8702;48.130;-1.696;2023-06-14T00:15:47;20.20;99.90
17174;DHT22;8702;48.130;-1.696;2023-06-14T00:18:14;20.20;99.90
17174;DHT22;8702;48.130;-1.696;2023-06-14T00:20:42;20.10;99.90
17174;DHT22;8702;48.130;-1.696;2023-06-14T00:23:10;20.10;99.90
17174;DHT22;8702;48.130;-1.696;2023-06-14T00:25:37;20.00;99.90
17174;DHT22;8702;48.130;-1.696;2023-06-14T00:28:04;19.90;99.90
17174;DHT22;8702;48.130;-1.696;2023-06-14T00:30:31;19.80;99.90
17174;DHT22;8702;48.130;-1.696;2023-06-14T00:32:58;19.80;99.90
17174;DHT22;8702;48.130;-1.696;2023-06-14T00:35:25;19.80;99.90
17174;DHT22;8702;48.130;-1.696;2023-06-14T00:37:52;19.70;99.90
17174;DHT22;8702;48.130;-1.696;2023-06-14T00:40:21;19.50;99.90
17174;DHT22;8702;48.130;-1.696;2023-06-14T00:42:48;19.40;99.90
17174;DHT22;8702;48.130;-1.696;2023-06-14T00:45:18;19.40;99.90
17174;DHT22;8702;48.130;-1.696;2023-06-14T00:50:13;19.50;99.90
17174;DHT22;8702;48.130;-1.696;2023-06-14T00:52:40;19.30;99.90
17174;DHT22;8702;48.130;-1.696;2023-06-14T00:55:08;19.40;99.90
17174;DHT22;8702;48.130;-1.696;2023-06-14T00:57:36;19.40;99.90
17174;DHT22;8702;48.130;-1.696;2023-06-14T01:00:06;19.20;99.90
17174;DHT22;8702;48.130;-1.696;2023-06-14T01:02:35;19.30;99.90
17174;DHT22;8702;48.130;-1.696;2023-06-14T01:05:03;19.20;99.90
17174;DHT22;8702;48.130;-1.696;2023-06-14T01:07:43;19.30;99.90
17174;DHT22;8702;48.130;-1.696;2023-06-14T01:10:22;19.20;99.90
17174;DHT22;8702;48.130;-1.696;2023-06-14T01:12:58;19.30;99.90
17174;DHT22;8702;48.130;-1.696;2023-06-14T01:15:25;19.30;99.90
17174;DHT22;8702;48.130;-1.696;2023-06-14T01:17:53;19.20;99.90
17174;DHT22;8702;48.130;-1.696;2023-06-14T01:20:29;19.20;99.90
17174;DHT22;8702;48.130;-1.696;2023-06-14T01:22:58;19.20;99.90
17174;DHT22;8702;48.130;-1.696;2023-06-14T01:25:25;19.20;99.90
17174;DHT22;8702;48.130;-1.696;2023-06-14T01:27:56;19.00;99.90
17174;DHT22;8702;48.130;-1.696;2023-06-14T01:32:52;19.00;99.90
17174;DHT22;8702;48.130;-1.696;2023-06-14T01:35:20;19.10;99.90
17174;DHT22;8702;48.130;-1.696;2023-06-14T01:37:48;19.00;99.90
17174;DHT22;8702;48.130;-1.696;2023-06-14T01:40:18;19.10;99.90
17174;DHT22;8702;48.130;-1.696;2023-06-14T01:42:46;19.10;99.90
17174;DHT22;8702;48.130;-1.696;2023-06-14T01:45:14;19.10;99.90
17174;DHT22;8702;48.130;-1.696;2023-06-14T01:47:42;19.10;99.90
17174;DHT22;8702;48.130;-1.696;2023-06-14T01:50:10;19.10;99.90
17174;DHT22;8702;48.130;-1.696;2023-06-14T01:52:37;19.00;99.90
17174;DHT22;8702;48.130;-1.696;2023-06-14T01:55:05;19.10;99.90
17174;DHT22;8702;48.130;-1.696;2023-06-14T01:57:34;19.10;99.90
17174;DHT22;8702;48.130;-1.696;2023-06-14T02:00:01;19.00;99.90
17174;DHT22;8702;48.130;-1.696;2023-06-14T02:02:29;19.00;99.90
17174;DHT22;8702;48.130;-1.696;2023-06-14T02:04:56;19.00;99.90
17174;DHT22;8702;48.130;-1.696;2023-06-14T02:07:24;19.10;99.90
17174;DHT22;8702;48.130;-1.696;2023-06-14T02:09:51;19.00;99.90
17174;DHT22;8702;48.130;-1.696;2023-06-14T02:12:18;19.10;99.90
17174;DHT22;8702;48.130;-1.696;2023-06-14T02:14:46;19.10;99.90
17174;DHT22;8702;48.130;-1.696;2023-06-14T02:17:14;19.10;99.90
17174;DHT22;8702;48.130;-1.696;2023-06-14T02:19:41;19.20;99.90
17174;DHT22;8702;48.130;-1.696;2023-06-14T02:22:09;19.20;99.90
17174;DHT22;8702;48.130;-1.696;2023-06-14T02:24:36;19.20;99.90
17174;DHT22;8702;48.130;-1.696;2023-06-14T02:27:04;19.10;99.90
17174;DHT22;8702;48.130;-1.696;2023-06-14T02:29:32;19.10;99.90
17174;DHT22;8702;48.130;-1.696;2023-06-14T02:34:27;18.90;99.90
17174;DHT22;8702;48.130;-1.696;2023-06-14T02:36:54;18.80;99.90
17174;DHT22;8702;48.130;-1.696;2023-06-14T02:39:22;18.80;99.90
17174;DHT22;8702;48.130;-1.696;2023-06-14T02:41:50;18.80;99.90
17174;DHT22;8702;48.130;-1.696;2023-06-14T02:44:18;18.70;99.90
17174;DHT22;8702;48.130;-1.696;2023-06-14T02:46:45;18.60;99.90
17174;DHT22;8702;48.130;-1.696;2023-06-14T02:49:13;18.60;99.90
17174;DHT22;8702;48.130;-1.696;2023-06-14T02:51:40;18.40;99.90
17174;DHT22;8702;48.130;-1.696;2023-06-14T02:54:07;18.40;99.90
17174;DHT22;8702;48.130;-1.696;2023-06-14T02:56:36;18.70;99.90
17174;DHT22;8702;48.130;-1.696;2023-06-14T02:59:02;18.50;99.90
17174;DHT22;8702;48.130;-1.696;2023-06-14T03:01:29;18.40;99.90
17174;DHT22;8702;48.130;-1.696;2023-06-14T03:04:00;18.20;99.90
17174;DHT22;8702;48.130;-1.696;2023-06-14T03:06:28;18.30;99.90
17174;DHT22;8702;48.130;-1.696;2023-06-14T03:08:56;18.30;99.90
17174;DHT22;8702;48.130;-1.696;2023-06-14T03:11:25;18.40;99.90
17174;DHT22;8702;48.130;-1.696;2023-06-14T03:13:52;18.40;99.90
17174;DHT22;8702;48.130;-1.696;2023-06-14T03:16:20;18.40;99.90
17174;DHT22;8702;48.130;-1.696;2023-06-14T03:18:49;18.30;99.90
17174;DHT22;8702;48.130;-1.696;2023-06-14T03:21:17;18.30;99.90
17174;DHT22;8702;48.130;-1.696;2023-06-14T03:23:45;18.20;99.90
17174;DHT22;8702;48.130;-1.696;2023-06-14T03:26:12;18.30;99.90
17174;DHT22;8702;48.130;-1.696;2023-06-14T03:28:40;18.40;99.90
17174;DHT22;8702;48.130;-1.696;2023-06-14T03:31:07;18.40;99.90
17174;DHT22;8702;48.130;-1.696;2023-06-14T03:33:34;18.40;99.90
17174;DHT22;8702;48.130;-1.696;2023-06-14T03:36:02;18.40;99.90
17174;DHT22;8702;48.130;-1.696;2023-06-14T03:38:29;18.30;99.90
17174;DHT22;8702;48.130;-1.696;2023-06-14T03:40:57;18.20;99.90
17174;DHT22;8702;48.130;-1.696;2023-06-14T03:43:24;18.40;99.90
17174;DHT22;8702;48.130;-1.696;2023-06-14T03:45:51;18.40;99.90
17174;DHT22;8702;48.130;-1.696;2023-06-14T03:48:18;18.40;99.90
17174;DHT22;8702;48.130;-1.696;2023-06-14T03:50:45;18.40;99.90
17174;DHT22;8702;48.130;-1.696;2023-06-14T03:53:12;18.40;99.90
17174;DHT22;8702;48.130;-1.696;2023-06-14T03:55:40;18.10;99.90
17174;DHT22;8702;48.130;-1.696;2023-06-14T03:58:08;18.30;99.90
17174;DHT22;8702;48.130;-1.696;2023-06-14T04:00:36;18.20;99.90
17174;DHT22;8702;48.130;-1.696;2023-06-14T04:03:03;18.20;99.90
17174;DHT22;8702;48.130;-1.696;2023-06-14T04:08:00;18.20;99.90
17174;DHT22;8702;48.130;-1.696;2023-06-14T04:10:27;18.30;99.90
17174;DHT22;8702;48.130;-1.696;2023-06-14T04:12:54;18.10;99.90
17174;DHT22;8702;48.130;-1.696;2023-06-14T04:15:23;18.10;99.90
17174;DHT22;8702;48.130;-1.696;2023-06-14T04:17:50;18.10;99.90
17174;DHT22;8702;48.130;-1.696;2023-06-14T04:20:16;18.10;99.90
17174;DHT22;8702;48.130;-1.696;2023-06-14T04:22:43;18.10;99.90
17174;DHT22;8702;48.130;-1.696;2023-06-14T04:27:38;18.10;99.90
17174;DHT22;8702;48.130;-1.696;2023-06-14T04:30:06;18.10;99.90
17174;DHT22;8702;48.130;-1.696;2023-06-14T04:32:35;18.20;99.90
17174;DHT22;8702;48.130;-1.696;2023-06-14T04:35:05;18.20;99.90
17174;DHT22;8702;48.130;-1.696;2023-06-14T04:37:32;18.20;99.90
17174;DHT22;8702;48.130;-1.696;2023-06-14T04:39:59;18.10;99.90
17174;DHT22;8702;48.130;-1.696;2023-06-14T04:42:26;18.00;99.90
17174;DHT22;8702;48.130;-1.696;2023-06-14T04:44:57;18.00;99.90
17174;DHT22;8702;48.130;-1.696;2023-06-14T04:47:24;18.10;99.90
17174;DHT22;8702;48.130;-1.696;2023-06-14T04:49:56;18.10;99.90
17174;DHT22;8702;48.130;-1.696;2023-06-14T04:52:26;18.10;99.90
17174;DHT22;8702;48.130;-1.696;2023-06-14T04:54:55;18.20;99.90
17174;DHT22;8702;48.130;-1.696;2023-06-14T04:57:22;18.20;99.90
17174;DHT22;8702;48.130;-1.696;2023-06-14T04:59:51;18.20;99.90
17174;DHT22;8702;48.130;-1.696;2023-06-14T05:02:21;18.30;99.90
17174;DHT22;8702;48.130;-1.696;2023-06-14T05:04:48;18.30;99.90
17174;DHT22;8702;48.130;-1.696;2023-06-14T05:07:17;18.30;99.90
17174;DHT22;8702;48.130;-1.696;2023-06-14T05:09:44;18.40;99.90
17174;DHT22;8702;48.130;-1.696;2023-06-14T05:12:12;18.50;99.90
17174;DHT22;8702;48.130;-1.696;2023-06-14T05:14:38;18.50;99.90
17174;DHT22;8702;48.130;-1.696;2023-06-14T05:17:06;18.50;99.90
17174;DHT22;8702;48.130;-1.696;2023-06-14T05:19:33;18.50;99.90
17174;DHT22;8702;48.130;-1.696;2023-06-14T05:22:01;18.40;99.90
17174;DHT22;8702;48.130;-1.696;2023-06-14T05:24:30;18.40;99.90
17174;DHT22;8702;48.130;-1.696;2023-06-14T05:26:58;18.50;99.90
17174;DHT22;8702;48.130;-1.696;2023-06-14T05:29:24;18.50;99.90
17174;DHT22;8702;48.130;-1.696;2023-06-14T05:31:53;18.40;99.90
17174;DHT22;8702;48.130;-1.696;2023-06-14T05:34:20;18.50;99.90
17174;DHT22;8702;48.130;-1.696;2023-06-14T05:36:47;18.50;99.90
17174;DHT22;8702;48.130;-1.696;2023-06-14T05:39:13;18.50;99.90
17174;DHT22;8702;48.130;-1.696;2023-06-14T05:41:42;18.60;99.90
17174;DHT22;8702;48.130;-1.696;2023-06-14T05:44:09;18.60;99.90
17174;DHT22;8702;48.130;-1.696;2023-06-14T05:46:36;18.50;99.90
17174;DHT22;8702;48.130;-1.696;2023-06-14T05:49:05;18.50;99.90
17174;DHT22;8702;48.130;-1.696;2023-06-14T05:51:32;18.50;99.90
17174;DHT22;8702;48.130;-1.696;2023-06-14T05:53:59;18.50;99.90
17174;DHT22;8702;48.130;-1.696;2023-06-14T05:56:26;18.40;99.90
17174;DHT22;8702;48.130;-1.696;2023-06-14T05:58:54;18.50;99.90
17174;DHT22;8702;48.130;-1.696;2023-06-14T06:01:22;18.60;99.90
17174;DHT22;8702;48.130;-1.696;2023-06-14T06:03:49;18.60;99.90
17174;DHT22;8702;48.130;-1.696;2023-06-14T06:06:17;18.60;99.90
17174;DHT22;8702;48.130;-1.696;2023-06-14T06:08:44;18.60;99.90
17174;DHT22;8702;48.130;-1.696;2023-06-14T06:11:12;18.60;99.90
17174;DHT22;8702;48.130;-1.696;2023-06-14T06:13:38;18.50;99.90
17174;DHT22;8702;48.130;-1.696;2023-06-14T06:16:07;18.60;99.90
17174;DHT22;8702;48.130;-1.696;2023-06-14T06:21:03;18.80;99.90
17174;DHT22;8702;48.130;-1.696;2023-06-14T06:23:30;18.90;99.90
17174;DHT22;8702;48.130;-1.696;2023-06-14T06:25:57;18.90;99.90
17174;DHT22;8702;48.130;-1.696;2023-06-14T06:28:24;18.80;99.90
17174;DHT22;8702;48.130;-1.696;2023-06-14T06:30:51;19.00;99.90
17174;DHT22;8702;48.130;-1.696;2023-06-14T06:33:21;19.00;99.90
17174;DHT22;8702;48.130;-1.696;2023-06-14T06:35:48;19.00;99.90
17174;DHT22;8702;48.130;-1.696;2023-06-14T06:38:17;19.00;99.90
17174;DHT22;8702;48.130;-1.696;2023-06-14T06:40:45;19.10;99.90
17174;DHT22;8702;48.130;-1.696;2023-06-14T06:43:12;19.10;99.90
17174;DHT22;8702;48.130;-1.696;2023-06-14T06:45:39;19.20;99.90
17174;DHT22;8702;48.130;-1.696;2023-06-14T06:48:06;19.10;99.90
17174;DHT22;8702;48.130;-1.696;2023-06-14T06:50:37;19.20;99.90
17174;DHT22;8702;48.130;-1.696;2023-06-14T06:53:04;19.20;99.90
17174;DHT22;8702;48.130;-1.696;2023-06-14T06:55:32;19.10;99.90
17174;DHT22;8702;48.130;-1.696;2023-06-14T06:57:59;19.20;99.90
17174;DHT22;8702;48.130;-1.696;2023-06-14T07:00:26;19.20;99.90
17174;DHT22;8702;48.130;-1.696;2023-06-14T07:02:53;19.20;99.90
17174;DHT22;8702;48.130;-1.696;2023-06-14T07:05:20;19.30;99.90
17174;DHT22;8702;48.130;-1.696;2023-06-14T07:07:49;19.30;99.90
17174;DHT22;8702;48.130;-1.696;2023-06-14T07:10:15;19.40;99.90
17174;DHT22;8702;48.130;-1.696;2023-06-14T07:12:42;19.50;99.90
17174;DHT22;8702;48.130;-1.696;2023-06-14T07:15:10;19.40;99.90
17174;DHT22;8702;48.130;-1.696;2023-06-14T07:17:37;19.50;99.90
17174;DHT22;8702;48.130;-1.696;2023-06-14T07:20:05;19.50;99.90
17174;DHT22;8702;48.130;-1.696;2023-06-14T07:22:39;19.70;99.90
17174;DHT22;8702;48.130;-1.696;2023-06-14T07:25:09;19.70;99.90
17174;DHT22;8702;48.130;-1.696;2023-06-14T07:27:38;19.80;99.90
17174;DHT22;8702;48.130;-1.696;2023-06-14T07:30:07;19.70;99.90
17174;DHT22;8702;48.130;-1.696;2023-06-14T07:32:36;19.70;99.90
17174;DHT22;8702;48.130;-1.696;2023-06-14T07:35:03;19.80;99.90
17174;DHT22;8702;48.130;-1.696;2023-06-14T07:37:30;19.70;99.90
17174;DHT22;8702;48.130;-1.696;2023-06-14T07:39:57;19.80;99.90
17174;DHT22;8702;48.130;-1.696;2023-06-14T07:42:25;19.90;99.90
17174;DHT22;8702;48.130;-1.696;2023-06-14T07:44:52;19.90;99.90
17174;DHT22;8702;48.130;-1.696;2023-06-14T07:47:19;19.90;99.90
17174;DHT22;8702;48.130;-1.696;2023-06-14T07:49:46;20.00;99.90
17174;DHT22;8702;48.130;-1.696;2023-06-14T07:52:13;20.10;99.90
17174;DHT22;8702;48.130;-1.696;2023-06-14T07:54:40;20.20;99.90
17174;DHT22;8702;48.130;-1.696;2023-06-14T07:57:07;20.20;99.90
17174;DHT22;8702;48.130;-1.696;2023-06-14T07:59:36;20.20;99.90
17174;DHT22;8702;48.130;-1.696;2023-06-14T08:02:03;20.30;99.90
17174;DHT22;8702;48.130;-1.696;2023-06-14T08:04:31;20.40;99.90
17174;DHT22;8702;48.130;-1.696;2023-06-14T08:06:58;20.50;99.90
17174;DHT22;8702;48.130;-1.696;2023-06-14T08:09:26;20.60;99.90
17174;DHT22;8702;48.130;-1.696;2023-06-14T08:11:54;20.80;99.90
17174;DHT22;8702;48.130;-1.696;2023-06-14T08:14:21;21.40;99.90
17174;DHT22;8702;48.130;-1.696;2023-06-14T08:16:49;20.90;99.90
17174;DHT22;8702;48.130;-1.696;2023-06-14T08:19:16;21.00;99.90
17174;DHT22;8702;48.130;-1.696;2023-06-14T08:21:43;21.00;99.90
17174;DHT22;8702;48.130;-1.696;2023-06-14T08:24:11;21.00;99.90
17174;DHT22;8702;48.130;-1.696;2023-06-14T08:26:39;21.20;99.90
17174;DHT22;8702;48.130;-1.696;2023-06-14T08:34:02;21.30;99.90
17174;DHT22;8702;48.130;-1.696;2023-06-14T08:36:29;21.40;99.90
17174;DHT22;8702;48.130;-1.696;2023-06-14T08:38:56;21.40;99.90
17174;DHT22;8702;48.130;-1.696;2023-06-14T08:41:23;21.60;99.90
17174;DHT22;8702;48.130;-1.696;2023-06-14T08:43:51;21.60;99.90
17174;DHT22;8702;48.130;-1.696;2023-06-14T08:46:18;21.60;99.90
17174;DHT22;8702;48.130;-1.696;2023-06-14T08:48:47;21.70;99.90
17174;DHT22;8702;48.130;-1.696;2023-06-14T08:51:18;21.90;99.90
17174;DHT22;8702;48.130;-1.696;2023-06-14T08:53:51;22.00;99.90
17174;DHT22;8702;48.130;-1.696;2023-06-14T08:56:19;22.20;99.90
17174;DHT22;8702;48.130;-1.696;2023-06-14T08:58:47;22.20;99.90
17174;DHT22;8702;48.130;-1.696;2023-06-14T09:01:15;22.30;99.90
17174;DHT22;8702;48.130;-1.696;2023-06-14T09:03:43;22.20;99.90
17174;DHT22;8702;48.130;-1.696;2023-06-14T09:06:10;22.30;99.90
17174;DHT22;8702;48.130;-1.696;2023-06-14T09:08:44;22.30;99.90
17174;DHT22;8702;48.130;-1.696;2023-06-14T09:11:12;22.40;99.90
17174;DHT22;8702;48.130;-1.696;2023-06-14T09:13:40;22.50;99.90
17174;DHT22;8702;48.130;-1.696;2023-06-14T09:16:08;22.50;99.90
17174;DHT22;8702;48.130;-1.696;2023-06-14T09:18:35;22.50;99.90
17174;DHT22;8702;48.130;-1.696;2023-06-14T09:21:03;22.50;99.90
17174;DHT22;8702;48.130;-1.696;2023-06-14T09:23:33;22.60;99.90
17174;DHT22;8702;48.130;-1.696;2023-06-14T09:26:09;22.70;99.90
17174;DHT22;8702;48.130;-1.696;2023-06-14T09:28:41;22.70;99.90
17174;DHT22;8702;48.130;-1.696;2023-06-14T09:31:09;22.70;99.90
17174;DHT22;8702;48.130;-1.696;2023-06-14T09:33:36;22.80;99.90
17174;DHT22;8702;48.130;-1.696;2023-06-14T09:36:09;22.80;99.90
17174;DHT22;8702;48.130;-1.696;2023-06-14T09:38:36;22.90;99.90
17174;DHT22;8702;48.130;-1.696;2023-06-14T09:41:04;23.00;99.90
17174;DHT22;8702;48.130;-1.696;2023-06-14T09:43:33;23.20;99.90
17174;DHT22;8702;48.130;-1.696;2023-06-14T09:46:01;23.40;99.90
17174;DHT22;8702;48.130;-1.696;2023-06-14T09:48:28;23.40;99.90
17174;DHT22;8702;48.130;-1.696;2023-06-14T09:50:55;23.50;99.90
17174;DHT22;8702;48.130;-1.696;2023-06-14T09:53:24;23.40;99.90
17174;DHT22;8702;48.130;-1.696;2023-06-14T09:55:52;23.50;99.90
17174;DHT22;8702;48.130;-1.696;2023-06-14T09:58:23;23.50;99.90
17174;DHT22;8702;48.130;-1.696;2023-06-14T10:00:54;23.60;99.90
17174;DHT22;8702;48.130;-1.696;2023-06-14T10:03:28;23.70;99.90
17174;DHT22;8702;48.130;-1.696;2023-06-14T10:05:56;23.70;99.90
17174;DHT22;8702;48.130;-1.696;2023-06-14T10:08:29;23.90;99.90
17174;DHT22;8702;48.130;-1.696;2023-06-14T10:10:58;24.00;99.90
17174;DHT22;8702;48.130;-1.696;2023-06-14T10:13:29;24.00;99.90
17174;DHT22;8702;48.130;-1.696;2023-06-14T10:36:24;24.60;99.90
17174;DHT22;8702;48.130;-1.696;2023-06-14T10:39:00;24.70;99.90
17174;DHT22;8702;48.130;-1.696;2023-06-14T10:41:28;24.70;99.90
17174;DHT22;8702;48.130;-1.696;2023-06-14T10:44:32;24.80;99.90
17174;DHT22;8702;48.130;-1.696;2023-06-14T10:46:59;24.80;99.90
17174;DHT22;8702;48.130;-1.696;2023-06-14T10:49:41;24.80;99.90
17174;DHT22;8702;48.130;-1.696;2023-06-14T10:52:09;24.80;99.90
17174;DHT22;8702;48.130;-1.696;2023-06-14T10:55:03;24.70;99.90
17174;DHT22;8702;48.130;-1.696;2023-06-14T10:57:32;25.00;99.90
17174;DHT22;8702;48.130;-1.696;2023-06-14T11:00:00;25.00;99.90
17174;DHT22;8702;48.130;-1.696;2023-06-14T11:03:17;25.10;99.90
17174;DHT22;8702;48.130;-1.696;2023-06-14T11:05:52;25.20;99.90
17174;DHT22;8702;48.130;-1.696;2023-06-14T11:11:16;25.30;99.90
17174;DHT22;8702;48.130;-1.696;2023-06-14T11:13:44;25.30;99.90
17174;DHT22;8702;48.130;-1.696;2023-06-14T11:16:14;25.30;99.90
17174;DHT22;8702;48.130;-1.696;2023-06-14T11:18:42;25.40;99.90
17174;DHT22;8702;48.130;-1.696;2023-06-14T11:21:10;25.50;99.90
17174;DHT22;8702;48.130;-1.696;2023-06-14T11:26:04;25.60;98.80
17174;DHT22;8702;48.130;-1.696;2023-06-14T11:28:39;25.60;99.60
17174;DHT22;8702;48.130;-1.696;2023-06-14T11:31:07;25.60;99.80
17174;DHT22;8702;48.130;-1.696;2023-06-14T11:33:35;25.70;99.20
17174;DHT22;8702;48.130;-1.696;2023-06-14T11:36:03;25.70;98.30
17174;DHT22;8702;48.130;-1.696;2023-06-14T11:38:35;25.80;98.60
17174;DHT22;8702;48.130;-1.696;2023-06-14T11:41:02;25.80;98.70
17174;DHT22;8702;48.130;-1.696;2023-06-14T11:43:29;25.90;98.80
17174;DHT22;8702;48.130;-1.696;2023-06-14T11:45:58;25.90;98.80
17174;DHT22;8702;48.130;-1.696;2023-06-14T11:48:37;25.90;98.40
17174;DHT22;8702;48.130;-1.696;2023-06-14T11:51:04;26.00;97.50
17174;DHT22;8702;48.130;-1.696;2023-06-14T11:55:59;26.10;99.90
17174;DHT22;8702;48.130;-1.696;2023-06-14T11:58:26;26.20;99.90
17174;DHT22;8702;48.130;-1.696;2023-06-14T12:00:53;26.40;99.90
17174;DHT22;8702;48.130;-1.696;2023-06-14T12:06:04;26.20;96.20
17174;DHT22;8702;48.130;-1.696;2023-06-14T12:08:33;26.20;96.50
17174;DHT22;8702;48.130;-1.696;2023-06-14T12:11:04;26.30;96.90
17174;DHT22;8702;48.130;-1.696;2023-06-14T12:13:31;26.30;96.20
17174;DHT22;8702;48.130;-1.696;2023-06-14T12:18:32;26.40;95.10
17174;DHT22;8702;48.130;-1.696;2023-06-14T12:21:02;26.40;95.50
17174;DHT22;8702;48.130;-1.696;2023-06-14T12:23:43;26.40;95.00
17174;DHT22;8702;48.130;-1.696;2023-06-14T12:26:13;26.50;95.00
17174;DHT22;8702;48.130;-1.696;2023-06-14T12:28:41;26.50;95.40
17174;DHT22;8702;48.130;-1.696;2023-06-14T12:31:11;26.70;95.50
17174;DHT22;8702;48.130;-1.696;2023-06-14T12:33:39;24.50;93.70
17174;DHT22;8702;48.130;-1.696;2023-06-14T12:36:09;26.70;94.00
17174;DHT22;8702;48.130;-1.696;2023-06-14T12:38:36;26.60;94.10
17174;DHT22;8702;48.130;-1.696;2023-06-14T12:41:03;26.70;94.30
17174;DHT22;8702;48.130;-1.696;2023-06-14T12:43:31;26.80;94.60
17174;DHT22;8702;48.130;-1.696;2023-06-14T12:45:58;26.90;94.70
17174;DHT22;8702;48.130;-1.696;2023-06-14T12:48:25;27.00;94.30
17174;DHT22;8702;48.130;-1.696;2023-06-14T12:50:53;26.90;93.70
17174;DHT22;8702;48.130;-1.696;2023-06-14T12:53:21;27.10;93.80
17174;DHT22;8702;48.130;-1.696;2023-06-14T12:55:48;27.20;94.00
17174;DHT22;8702;48.130;-1.696;2023-06-14T12:58:15;27.20;98.30
17174;DHT22;8702;48.130;-1.696;2023-06-14T13:00:45;27.30;99.90
17174;DHT22;8702;48.130;-1.696;2023-06-14T13:03:12;27.30;98.70
17174;DHT22;8702;48.130;-1.696;2023-06-14T13:05:39;27.20;98.40
17174;DHT22;8702;48.130;-1.696;2023-06-14T13:08:07;27.20;99.00
17174;DHT22;8702;48.130;-1.696;2023-06-14T13:10:36;27.30;99.20
17174;DHT22;8702;48.130;-1.696;2023-06-14T13:13:03;27.40;92.40
17174;DHT22;8702;48.130;-1.696;2023-06-14T13:17:57;27.70;92.30
17174;DHT22;8702;48.130;-1.696;2023-06-14T13:20:24;27.80;93.40
17174;DHT22;8702;48.130;-1.696;2023-06-14T13:22:51;27.80;92.20
17174;DHT22;8702;48.130;-1.696;2023-06-14T13:25:18;27.80;91.80
17174;DHT22;8702;48.130;-1.696;2023-06-14T13:27:47;27.80;92.10
17174;DHT22;8702;48.130;-1.696;2023-06-14T13:30:14;27.80;91.70
17174;DHT22;8702;48.130;-1.696;2023-06-14T13:32:41;27.70;91.30
17174;DHT22;8702;48.130;-1.696;2023-06-14T13:35:08;27.60;91.00
17174;DHT22;8702;48.130;-1.696;2023-06-14T13:37:35;27.80;92.50
17174;DHT22;8702;48.130;-1.696;2023-06-14T13:40:02;27.90;92.30
17174;DHT22;8702;48.130;-1.696;2023-06-14T13:42:29;28.00;91.60
17174;DHT22;8702;48.130;-1.696;2023-06-14T13:44:59;28.00;91.10
17174;DHT22;8702;48.130;-1.696;2023-06-14T13:47:26;28.00;91.40
17174;DHT22;8702;48.130;-1.696;2023-06-14T13:49:53;28.00;90.60
17174;DHT22;8702;48.130;-1.696;2023-06-14T13:52:20;28.10;90.70
17174;DHT22;8702;48.130;-1.696;2023-06-14T13:54:49;28.10;90.70
17174;DHT22;8702;48.130;-1.696;2023-06-14T13:57:17;28.10;90.00
17174;DHT22;8702;48.130;-1.696;2023-06-14T13:59:44;28.00;89.30
17174;DHT22;8702;48.130;-1.696;2023-06-14T14:02:13;28.10;90.40
17174;DHT22;8702;48.130;-1.696;2023-06-14T14:04:40;28.20;90.30
17174;DHT22;8702;48.130;-1.696;2023-06-14T14:07:08;28.50;91.20
17174;DHT22;8702;48.130;-1.696;2023-06-14T14:09:35;28.50;89.20
17174;DHT22;8702;48.130;-1.696;2023-06-14T14:12:03;28.60;87.30
17174;DHT22;8702;48.130;-1.696;2023-06-14T14:14:31;28.60;88.30
17174;DHT22;8702;48.130;-1.696;2023-06-14T14:16:58;28.50;88.20
17174;DHT22;8702;48.130;-1.696;2023-06-14T14:19:26;28.60;88.60
17174;DHT22;8702;48.130;-1.696;2023-06-14T14:21:54;28.80;89.30
17174;DHT22;8702;48.130;-1.696;2023-06-14T14:24:21;28.80;88.30
17174;DHT22;8702;48.130;-1.696;2023-06-14T14:26:47;29.00;88.10
17174;DHT22;8702;48.130;-1.696;2023-06-14T14:29:15;28.90;86.50
17174;DHT22;8702;48.130;-1.696;2023-06-14T14:31:42;29.00;87.80
17174;DHT22;8702;48.130;-1.696;2023-06-14T14:34:09;29.20;88.30
17174;DHT22;8702;48.130;-1.696;2023-06-14T14:36:37;29.40;87.50
17174;DHT22;8702;48.130;-1.696;2023-06-14T14:39:08;29.50;84.30
17174;DHT22;8702;48.130;-1.696;2023-06-14T14:41:34;29.70;86.30
17174;DHT22;8702;48.130;-1.696;2023-06-14T14:44:03;29.80;85.20
17174;DHT22;8702;48.130;-1.696;2023-06-14T14:46:30;30.00;86.40
17174;DHT22;8702;48.130;-1.696;2023-06-14T14:48:58;30.10;85.40
17174;DHT22;8702;48.130;-1.696;2023-06-14T14:51:25;30.10;85.50
17174;DHT22;8702;48.130;-1.696;2023-06-14T14:53:53;30.40;85.60
17174;DHT22;8702;48.130;-1.696;2023-06-14T14:56:22;30.60;84.10
17174;DHT22;8702;48.130;-1.696;2023-06-14T14:58:49;30.60;84.20
17174;DHT22;8702;48.130;-1.696;2023-06-14T15:01:16;30.70;81.70
17174;DHT22;8702;48.130;-1.696;2023-06-14T15:03:43;30.80;83.40
17174;DHT22;8702;48.130;-1.696;2023-06-14T15:06:10;31.10;82.30
17174;DHT22;8702;48.130;-1.696;2023-06-14T15:08:37;31.30;84.30
17174;DHT22;8702;48.130;-1.696;2023-06-14T15:11:05;31.70;84.40
17174;DHT22;8702;48.130;-1.696;2023-06-14T15:13:33;31.90;83.40
17174;DHT22;8702;48.130;-1.696;2023-06-14T15:16:00;32.10;83.70
17174;DHT22;8702;48.130;-1.696;2023-06-14T15:18:26;32.00;82.30
17174;DHT22;8702;48.130;-1.696;2023-06-14T15:20:53;32.10;81.70
17174;DHT22;8702;48.130;-1.696;2023-06-14T15:23:21;31.90;83.20
17174;DHT22;8702;48.130;-1.696;2023-06-14T15:25:48;31.90;82.20
17174;DHT22;8702;48.130;-1.696;2023-06-14T15:28:16;31.70;84.30
17174;DHT22;8702;48.130;-1.696;2023-06-14T15:30:43;32.20;85.00
17174;DHT22;8702;48.130;-1.696;2023-06-14T15:33:10;32.40;81.60
17174;DHT22;8702;48.130;-1.696;2023-06-14T15:35:36;32.50;82.50
17174;DHT22;8702;48.130;-1.696;2023-06-14T15:38:03;32.70;81.60
17174;DHT22;8702;48.130;-1.696;2023-06-14T15:40:30;32.80;82.10
17174;DHT22;8702;48.130;-1.696;2023-06-14T15:42:57;33.00;81.10
17174;DHT22;8702;48.130;-1.696;2023-06-14T15:45:25;33.00;80.40
17174;DHT22;8702;48.130;-1.696;2023-06-14T15:47:52;33.10;79.90
17174;DHT22;8702;48.130;-1.696;2023-06-14T15:50:19;33.00;81.30
17174;DHT22;8702;48.130;-1.696;2023-06-14T15:52:48;33.00;81.10
17174;DHT22;8702;48.130;-1.696;2023-06-14T15:55:15;33.20;80.90
17174;DHT22;8702;48.130;-1.696;2023-06-14T15:57:42;32.80;81.70
17174;DHT22;8702;48.130;-1.696;2023-06-14T16:00:10;32.70;82.00
17174;DHT22;8702;48.130;-1.696;2023-06-14T16:02:38;32.70;81.60
17174;DHT22;8702;48.130;-1.696;2023-06-14T16:05:05;32.60;82.00
17174;DHT22;8702;48.130;-1.696;2023-06-14T16:10:01;32.50;80.40
17174;DHT22;8702;48.130;-1.696;2023-06-14T16:12:28;32.30;81.10
17174;DHT22;8702;48.130;-1.696;2023-06-14T16:14:55;32.20;81.60
17174;DHT22;8702;48.130;-1.696;2023-06-14T16:17:21;32.00;81.10
17174;DHT22;8702;48.130;-1.696;2023-06-14T16:19:50;31.90;82.30
17174;DHT22;8702;48.130;-1.696;2023-06-14T16:22:17;32.00;82.80
17174;DHT22;8702;48.130;-1.696;2023-06-14T16:24:44;32.00;83.10
17174;DHT22;8702;48.130;-1.696;2023-06-14T16:27:11;32.00;82.10
17174;DHT22;8702;48.130;-1.696;2023-06-14T16:29:38;31.90;82.00
17174;DHT22;8702;48.130;-1.696;2023-06-14T16:32:07;31.90;82.10
17174;DHT22;8702;48.130;-1.696;2023-06-14T16:34:34;31.90;82.20